sensor_id;sensor_type;location;lat;lon;timestamp;P1;durP1;ratioP1;P2;durP2;ratioP2
71166;SDS011;58864;45.928;20.078;2024-03-06T00:01:19;35.88;;;16.10;;
71166;SDS011;58864;45.928;20.078;2024-03-06T00:03:45;35.90;;;15.88;;
71166;SDS011;58864;45.928;20.078;2024-03-06T00:06:13;36.88;;;16.25;;
71166;SDS011;58864;45.928;20.078;2024-03-06T00:08:39;34.63;;;16.30;;
71166;SDS011;58864;45.928;20.078;2024-03-06T00:11:05;32.43;;;15.73;;
71166;SDS011;58864;45.928;20.078;2024-03-06T00:13:31;35.33;;;16.15;;
71166;SDS011;58864;45.928;20.078;2024-03-06T00:15:58;36.30;;;15.88;;
71166;SDS011;58864;45.928;20.078;2024-03-06T00:18:24;35.40;;;16.38;;
71166;SDS011;58864;45.928;20.078;2024-03-06T00:20:50;37.25;;;16.65;;
71166;SDS011;58864;45.928;20.078;2024-03-06T00:23:17;37.63;;;16.13;;
71166;SDS011;58864;45.928;20.078;2024-03-06T00:25:43;38.00;;;17.15;;
71166;SDS011;58864;45.928;20.078;2024-03-06T00:28:09;41.80;;;17.15;;
71166;SDS011;58864;45.928;20.078;2024-03-06T00:30:35;38.55;;;17.25;;
71166;SDS011;58864;45.928;20.078;2024-03-06T00:33:01;38.35;;;16.90;;
71166;SDS011;58864;45.928;20.078;2024-03-06T00:35:27;37.50;;;16.50;;
71166;SDS011;58864;45.928;20.078;2024-03-06T00:37:53;38.67;;;16.63;;
71166;SDS011;58864;45.928;20.078;2024-03-06T00:40:21;39.58;;;17.30;;
71166;SDS011;58864;45.928;20.078;2024-03-06T00:42:47;43.63;;;17.95;;
71166;SDS011;58864;45.928;20.078;2024-03-06T00:45:13;38.83;;;17.27;;
71166;SDS011;58864;45.928;20.078;2024-03-06T00:47:39;42.20;;;17.53;;
71166;SDS011;58864;45.928;20.078;2024-03-06T00:50:06;39.78;;;17.45;;
71166;SDS011;58864;45.928;20.078;2024-03-06T00:52:32;42.72;;;17.30;;
71166;SDS011;58864;45.928;20.078;2024-03-06T00:54:58;39.25;;;16.55;;
71166;SDS011;58864;45.928;20.078;2024-03-06T00:57:26;35.85;;;16.17;;
71166;SDS011;58864;45.928;20.078;2024-03-06T00:59:51;38.73;;;16.53;;
71166;SDS011;58864;45.928;20.078;2024-03-06T01:02:17;36.60;;;15.98;;
71166;SDS011;58864;45.928;20.078;2024-03-06T01:04:43;34.60;;;15.18;;
71166;SDS011;58864;45.928;20.078;2024-03-06T01:07:09;40.08;;;16.30;;
71166;SDS011;58864;45.928;20.078;2024-03-06T01:09:35;36.92;;;15.82;;
71166;SDS011;58864;45.928;20.078;2024-03-06T01:12:01;35.90;;;15.37;;
71166;SDS011;58864;45.928;20.078;2024-03-06T01:14:28;31.50;;;15.25;;
71166;SDS011;58864;45.928;20.078;2024-03-06T01:16:55;30.35;;;14.05;;
71166;SDS011;58864;45.928;20.078;2024-03-06T01:19:21;31.58;;;15.40;;
71166;SDS011;58864;45.928;20.078;2024-03-06T01:21:47;31.63;;;15.07;;
71166;SDS011;58864;45.928;20.078;2024-03-06T01:24:13;38.83;;;17.43;;
71166;SDS011;58864;45.928;20.078;2024-03-06T01:26:38;38.90;;;17.80;;
71166;SDS011;58864;45.928;20.078;2024-03-06T01:29:05;37.03;;;17.25;;
71166;SDS011;58864;45.928;20.078;2024-03-06T01:31:32;38.58;;;17.00;;
71166;SDS011;58864;45.928;20.078;2024-03-06T01:33:58;40.20;;;17.27;;
71166;SDS011;58864;45.928;20.078;2024-03-06T01:36:24;38.30;;;17.40;;
71166;SDS011;58864;45.928;20.078;2024-03-06T01:38:49;45.83;;;19.00;;
71166;SDS011;58864;45.928;20.078;2024-03-06T01:41:15;41.88;;;17.92;;
71166;SDS011;58864;45.928;20.078;2024-03-06T01:43:41;45.00;;;17.55;;
71166;SDS011;58864;45.928;20.078;2024-03-06T01:46:07;41.60;;;19.25;;
71166;SDS011;58864;45.928;20.078;2024-03-06T01:48:34;44.13;;;19.00;;
71166;SDS011;58864;45.928;20.078;2024-03-06T01:51:01;41.95;;;19.02;;
71166;SDS011;58864;45.928;20.078;2024-03-06T01:53:29;37.47;;;17.58;;
71166;SDS011;58864;45.928;20.078;2024-03-06T01:55:55;35.50;;;16.60;;
71166;SDS011;58864;45.928;20.078;2024-03-06T01:58:21;39.38;;;17.05;;
71166;SDS011;58864;45.928;20.078;2024-03-06T02:00:49;44.57;;;19.20;;
71166;SDS011;58864;45.928;20.078;2024-03-06T02:03:15;41.00;;;17.13;;
71166;SDS011;58864;45.928;20.078;2024-03-06T02:05:43;42.47;;;18.20;;
71166;SDS011;58864;45.928;20.078;2024-03-06T02:08:08;44.28;;;18.13;;
71166;SDS011;58864;45.928;20.078;2024-03-06T02:10:34;36.25;;;16.42;;
71166;SDS011;58864;45.928;20.078;2024-03-06T02:13:00;37.10;;;16.70;;
71166;SDS011;58864;45.928;20.078;2024-03-06T02:15:26;39.95;;;17.40;;
71166;SDS011;58864;45.928;20.078;2024-03-06T02:17:52;46.17;;;18.58;;
71166;SDS011;58864;45.928;20.078;2024-03-06T02:20:22;40.65;;;18.00;;
71166;SDS011;58864;45.928;20.078;2024-03-06T02:22:48;45.88;;;18.27;;
71166;SDS011;58864;45.928;20.078;2024-03-06T02:25:14;43.50;;;18.90;;
71166;SDS011;58864;45.928;20.078;2024-03-06T02:27:41;42.53;;;17.95;;
71166;SDS011;58864;45.928;20.078;2024-03-06T02:30:07;42.47;;;18.70;;
71166;SDS011;58864;45.928;20.078;2024-03-06T02:32:33;46.03;;;18.33;;
71166;SDS011;58864;45.928;20.078;2024-03-06T02:35:00;39.95;;;17.60;;
71166;SDS011;58864;45.928;20.078;2024-03-06T02:37:28;41.33;;;17.53;;
71166;SDS011;58864;45.928;20.078;2024-03-06T02:39:54;41.00;;;17.85;;
71166;SDS011;58864;45.928;20.078;2024-03-06T02:42:20;42.97;;;18.38;;
71166;SDS011;58864;45.928;20.078;2024-03-06T02:44:46;39.10;;;17.05;;
71166;SDS011;58864;45.928;20.078;2024-03-06T02:47:12;36.17;;;16.98;;
71166;SDS011;58864;45.928;20.078;2024-03-06T02:49:38;37.47;;;15.53;;
71166;SDS011;58864;45.928;20.078;2024-03-06T02:52:04;33.53;;;15.23;;
71166;SDS011;58864;45.928;20.078;2024-03-06T02:54:32;40.78;;;17.10;;
71166;SDS011;58864;45.928;20.078;2024-03-06T02:56:57;39.25;;;16.90;;
71166;SDS011;58864;45.928;20.078;2024-03-06T02:59:23;37.40;;;15.90;;
71166;SDS011;58864;45.928;20.078;2024-03-06T03:01:49;36.57;;;16.27;;
71166;SDS011;58864;45.928;20.078;2024-03-06T03:04:15;35.72;;;16.10;;
71166;SDS011;58864;45.928;20.078;2024-03-06T03:06:41;36.33;;;16.45;;
71166;SDS011;58864;45.928;20.078;2024-03-06T03:09:07;40.55;;;17.17;;
71166;SDS011;58864;45.928;20.078;2024-03-06T03:11:37;39.78;;;18.10;;
71166;SDS011;58864;45.928;20.078;2024-03-06T03:14:03;39.20;;;17.83;;
71166;SDS011;58864;45.928;20.078;2024-03-06T03:16:29;41.40;;;18.75;;
71166;SDS011;58864;45.928;20.078;2024-03-06T03:18:56;46.30;;;20.08;;
71166;SDS011;58864;45.928;20.078;2024-03-06T03:21:22;46.97;;;21.33;;
71166;SDS011;58864;45.928;20.078;2024-03-06T03:23:48;45.33;;;19.88;;
71166;SDS011;58864;45.928;20.078;2024-03-06T03:26:14;43.73;;;18.93;;
71166;SDS011;58864;45.928;20.078;2024-03-06T03:28:41;40.95;;;17.08;;
71166;SDS011;58864;45.928;20.078;2024-03-06T03:31:07;42.78;;;18.42;;
71166;SDS011;58864;45.928;20.078;2024-03-06T03:33:33;43.90;;;18.13;;
71166;SDS011;58864;45.928;20.078;2024-03-06T03:36:00;43.17;;;18.13;;
71166;SDS011;58864;45.928;20.078;2024-03-06T03:38:27;34.90;;;15.67;;
71166;SDS011;58864;45.928;20.078;2024-03-06T03:40:52;37.00;;;15.68;;
71166;SDS011;58864;45.928;20.078;2024-03-06T03:43:18;32.60;;;14.52;;
71166;SDS011;58864;45.928;20.078;2024-03-06T03:45:46;38.08;;;15.75;;
71166;SDS011;58864;45.928;20.078;2024-03-06T03:48:12;34.95;;;14.95;;
71166;SDS011;58864;45.928;20.078;2024-03-06T03:50:39;38.20;;;16.00;;
71166;SDS011;58864;45.928;20.078;2024-03-06T03:53:04;34.25;;;15.45;;
71166;SDS011;58864;45.928;20.078;2024-03-06T03:55:30;39.70;;;15.73;;
71166;SDS011;58864;45.928;20.078;2024-03-06T03:57:56;48.80;;;20.08;;
71166;SDS011;58864;45.928;20.078;2024-03-06T04:00:22;43.58;;;17.27;;
71166;SDS011;58864;45.928;20.078;2024-03-06T04:02:49;38.27;;;16.27;;
71166;SDS011;58864;45.928;20.078;2024-03-06T04:05:15;43.30;;;19.08;;
71166;SDS011;58864;45.928;20.078;2024-03-06T04:07:41;41.75;;;18.75;;
71166;SDS011;58864;45.928;20.078;2024-03-06T04:10:08;42.92;;;18.13;;
71166;SDS011;58864;45.928;20.078;2024-03-06T04:12:35;43.38;;;19.40;;
71166;SDS011;58864;45.928;20.078;2024-03-06T04:15:01;42.23;;;17.33;;
71166;SDS011;58864;45.928;20.078;2024-03-06T04:17:28;44.15;;;18.33;;
71166;SDS011;58864;45.928;20.078;2024-03-06T04:19:55;50.75;;;22.20;;
71166;SDS011;58864;45.928;20.078;2024-03-06T04:22:21;55.13;;;22.75;;
71166;SDS011;58864;45.928;20.078;2024-03-06T04:24:47;44.70;;;20.17;;
71166;SDS011;58864;45.928;20.078;2024-03-06T04:27:12;45.33;;;19.30;;
71166;SDS011;58864;45.928;20.078;2024-03-06T04:29:40;41.85;;;18.17;;
71166;SDS011;58864;45.928;20.078;2024-03-06T04:32:06;42.17;;;17.63;;
71166;SDS011;58864;45.928;20.078;2024-03-06T04:34:32;48.33;;;18.25;;
71166;SDS011;58864;45.928;20.078;2024-03-06T04:36:59;40.58;;;17.63;;
71166;SDS011;58864;45.928;20.078;2024-03-06T04:39:26;46.20;;;19.20;;
71166;SDS011;58864;45.928;20.078;2024-03-06T04:41:52;43.10;;;17.95;;
71166;SDS011;58864;45.928;20.078;2024-03-06T04:44:18;43.58;;;16.92;;
71166;SDS011;58864;45.928;20.078;2024-03-06T04:46:43;40.65;;;16.73;;
71166;SDS011;58864;45.928;20.078;2024-03-06T04:49:09;41.72;;;17.23;;
71166;SDS011;58864;45.928;20.078;2024-03-06T04:51:35;40.87;;;17.17;;
71166;SDS011;58864;45.928;20.078;2024-03-06T04:54:03;41.63;;;17.00;;
71166;SDS011;58864;45.928;20.078;2024-03-06T04:56:29;40.13;;;17.13;;
71166;SDS011;58864;45.928;20.078;2024-03-06T04:58:54;48.00;;;19.35;;
71166;SDS011;58864;45.928;20.078;2024-03-06T05:01:20;45.03;;;19.33;;
71166;SDS011;58864;45.928;20.078;2024-03-06T05:03:46;50.43;;;20.67;;
71166;SDS011;58864;45.928;20.078;2024-03-06T05:06:13;55.67;;;22.20;;
71166;SDS011;58864;45.928;20.078;2024-03-06T05:08:39;46.28;;;18.92;;
71166;SDS011;58864;45.928;20.078;2024-03-06T05:11:06;47.65;;;18.83;;
71166;SDS011;58864;45.928;20.078;2024-03-06T05:13:32;42.90;;;17.13;;
71166;SDS011;58864;45.928;20.078;2024-03-06T05:15:58;38.77;;;17.00;;
71166;SDS011;58864;45.928;20.078;2024-03-06T05:18:24;37.22;;;16.55;;
71166;SDS011;58864;45.928;20.078;2024-03-06T05:20:50;45.90;;;19.10;;
71166;SDS011;58864;45.928;20.078;2024-03-06T05:23:16;46.42;;;18.38;;
71166;SDS011;58864;45.928;20.078;2024-03-06T05:25:41;49.60;;;21.00;;
71166;SDS011;58864;45.928;20.078;2024-03-06T05:28:09;49.13;;;20.13;;
71166;SDS011;58864;45.928;20.078;2024-03-06T05:30:35;47.40;;;21.27;;
71166;SDS011;58864;45.928;20.078;2024-03-06T05:33:01;58.45;;;25.17;;
71166;SDS011;58864;45.928;20.078;2024-03-06T05:35:26;64.28;;;27.65;;
71166;SDS011;58864;45.928;20.078;2024-03-06T05:37:53;58.92;;;25.80;;
71166;SDS011;58864;45.928;20.078;2024-03-06T05:40:19;52.03;;;23.40;;
71166;SDS011;58864;45.928;20.078;2024-03-06T05:42:44;50.80;;;22.00;;
71166;SDS011;58864;45.928;20.078;2024-03-06T05:45:12;47.15;;;20.17;;
71166;SDS011;58864;45.928;20.078;2024-03-06T05:47:38;41.83;;;18.83;;
71166;SDS011;58864;45.928;20.078;2024-03-06T05:50:05;44.90;;;18.73;;
71166;SDS011;58864;45.928;20.078;2024-03-06T05:52:31;45.50;;;19.77;;
71166;SDS011;58864;45.928;20.078;2024-03-06T05:54:58;46.42;;;19.20;;
71166;SDS011;58864;45.928;20.078;2024-03-06T05:57:23;48.90;;;20.15;;
71166;SDS011;58864;45.928;20.078;2024-03-06T05:59:50;44.88;;;19.80;;
71166;SDS011;58864;45.928;20.078;2024-03-06T06:02:17;45.47;;;19.45;;
71166;SDS011;58864;45.928;20.078;2024-03-06T06:04:43;47.27;;;19.60;;
71166;SDS011;58864;45.928;20.078;2024-03-06T06:07:09;46.03;;;19.23;;
71166;SDS011;58864;45.928;20.078;2024-03-06T06:09:35;48.20;;;19.25;;
71166;SDS011;58864;45.928;20.078;2024-03-06T06:12:01;48.15;;;18.35;;
71166;SDS011;58864;45.928;20.078;2024-03-06T06:14:27;49.60;;;18.92;;
71166;SDS011;58864;45.928;20.078;2024-03-06T06:16:53;48.33;;;19.90;;
71166;SDS011;58864;45.928;20.078;2024-03-06T06:19:20;47.55;;;19.27;;
71166;SDS011;58864;45.928;20.078;2024-03-06T06:21:46;46.58;;;20.20;;
71166;SDS011;58864;45.928;20.078;2024-03-06T06:24:12;58.58;;;25.00;;
71166;SDS011;58864;45.928;20.078;2024-03-06T06:26:38;61.80;;;24.50;;
71166;SDS011;58864;45.928;20.078;2024-03-06T06:29:04;59.57;;;22.70;;
71166;SDS011;58864;45.928;20.078;2024-03-06T06:31:30;56.65;;;23.10;;
71166;SDS011;58864;45.928;20.078;2024-03-06T06:33:56;51.63;;;21.23;;
71166;SDS011;58864;45.928;20.078;2024-03-06T06:36:23;46.75;;;20.27;;
71166;SDS011;58864;45.928;20.078;2024-03-06T06:38:49;48.67;;;20.55;;
71166;SDS011;58864;45.928;20.078;2024-03-06T06:41:15;57.20;;;19.97;;
71166;SDS011;58864;45.928;20.078;2024-03-06T06:43:41;59.05;;;20.33;;
71166;SDS011;58864;45.928;20.078;2024-03-06T06:46:07;46.85;;;18.95;;
71166;SDS011;58864;45.928;20.078;2024-03-06T06:48:33;53.42;;;20.67;;
71166;SDS011;58864;45.928;20.078;2024-03-06T06:50:59;47.22;;;20.20;;
71166;SDS011;58864;45.928;20.078;2024-03-06T06:53:28;51.20;;;20.80;;
71166;SDS011;58864;45.928;20.078;2024-03-06T06:55:54;59.90;;;21.75;;
71166;SDS011;58864;45.928;20.078;2024-03-06T06:58:19;51.38;;;20.77;;
71166;SDS011;58864;45.928;20.078;2024-03-06T07:00:45;47.88;;;19.70;;
71166;SDS011;58864;45.928;20.078;2024-03-06T07:03:12;54.05;;;20.60;;
71166;SDS011;58864;45.928;20.078;2024-03-06T07:05:38;50.07;;;20.23;;
71166;SDS011;58864;45.928;20.078;2024-03-06T07:08:06;54.90;;;21.25;;
71166;SDS011;58864;45.928;20.078;2024-03-06T07:10:33;50.50;;;21.05;;
71166;SDS011;58864;45.928;20.078;2024-03-06T07:13:00;50.72;;;20.63;;
71166;SDS011;58864;45.928;20.078;2024-03-06T07:15:26;44.90;;;19.88;;
71166;SDS011;58864;45.928;20.078;2024-03-06T07:17:52;46.97;;;20.23;;
71166;SDS011;58864;45.928;20.078;2024-03-06T07:20:18;46.90;;;20.33;;
71166;SDS011;58864;45.928;20.078;2024-03-06T07:22:44;50.78;;;20.90;;
71166;SDS011;58864;45.928;20.078;2024-03-06T07:25:10;49.50;;;20.33;;
71166;SDS011;58864;45.928;20.078;2024-03-06T07:27:38;50.85;;;21.48;;
71166;SDS011;58864;45.928;20.078;2024-03-06T07:30:04;50.23;;;20.13;;
71166;SDS011;58864;45.928;20.078;2024-03-06T07:32:31;50.35;;;21.10;;
71166;SDS011;58864;45.928;20.078;2024-03-06T07:34:57;50.50;;;21.08;;
71166;SDS011;58864;45.928;20.078;2024-03-06T07:37:23;48.33;;;21.23;;
71166;SDS011;58864;45.928;20.078;2024-03-06T07:39:49;48.67;;;20.92;;
71166;SDS011;58864;45.928;20.078;2024-03-06T07:42:15;46.53;;;20.57;;
71166;SDS011;58864;45.928;20.078;2024-03-06T07:44:43;44.15;;;20.50;;
71166;SDS011;58864;45.928;20.078;2024-03-06T07:47:09;44.22;;;18.70;;
71166;SDS011;58864;45.928;20.078;2024-03-06T07:49:36;47.33;;;19.35;;
71166;SDS011;58864;45.928;20.078;2024-03-06T07:52:02;42.92;;;19.15;;
71166;SDS011;58864;45.928;20.078;2024-03-06T07:54:28;43.30;;;19.10;;
71166;SDS011;58864;45.928;20.078;2024-03-06T07:56:54;44.08;;;19.45;;
71166;SDS011;58864;45.928;20.078;2024-03-06T07:59:20;44.63;;;18.90;;
71166;SDS011;58864;45.928;20.078;2024-03-06T08:01:47;43.40;;;18.88;;
71166;SDS011;58864;45.928;20.078;2024-03-06T08:04:13;40.67;;;18.80;;
71166;SDS011;58864;45.928;20.078;2024-03-06T08:06:39;40.40;;;18.57;;
71166;SDS011;58864;45.928;20.078;2024-03-06T08:09:05;40.67;;;18.05;;
71166;SDS011;58864;45.928;20.078;2024-03-06T08:11:32;40.88;;;17.67;;
71166;SDS011;58864;45.928;20.078;2024-03-06T08:13:58;41.38;;;18.90;;
71166;SDS011;58864;45.928;20.078;2024-03-06T08:16:26;42.03;;;18.27;;
71166;SDS011;58864;45.928;20.078;2024-03-06T08:18:54;36.70;;;17.67;;
71166;SDS011;58864;45.928;20.078;2024-03-06T08:21:21;40.17;;;17.40;;
71166;SDS011;58864;45.928;20.078;2024-03-06T08:23:47;39.65;;;17.23;;
71166;SDS011;58864;45.928;20.078;2024-03-06T08:26:13;38.35;;;17.70;;
71166;SDS011;58864;45.928;20.078;2024-03-06T08:28:39;41.67;;;17.98;;
71166;SDS011;58864;45.928;20.078;2024-03-06T08:31:05;39.40;;;17.73;;
71166;SDS011;58864;45.928;20.078;2024-03-06T08:33:32;41.30;;;18.50;;
71166;SDS011;58864;45.928;20.078;2024-03-06T08:35:59;38.85;;;18.38;;
71166;SDS011;58864;45.928;20.078;2024-03-06T08:38:26;42.83;;;18.88;;
71166;SDS011;58864;45.928;20.078;2024-03-06T08:40:52;41.17;;;18.95;;
71166;SDS011;58864;45.928;20.078;2024-03-06T08:43:18;40.67;;;19.10;;
71166;SDS011;58864;45.928;20.078;2024-03-06T08:45:44;36.72;;;17.20;;
71166;SDS011;58864;45.928;20.078;2024-03-06T08:48:10;36.17;;;17.67;;
71166;SDS011;58864;45.928;20.078;2024-03-06T08:50:36;43.40;;;18.63;;
71166;SDS011;58864;45.928;20.078;2024-03-06T08:53:04;39.90;;;17.55;;
71166;SDS011;58864;45.928;20.078;2024-03-06T08:55:30;38.87;;;17.87;;
71166;SDS011;58864;45.928;20.078;2024-03-06T08:57:56;40.53;;;18.60;;
71166;SDS011;58864;45.928;20.078;2024-03-06T09:00:22;36.95;;;17.92;;
71166;SDS011;58864;45.928;20.078;2024-03-06T09:02:50;35.67;;;16.63;;
71166;SDS011;58864;45.928;20.078;2024-03-06T09:05:17;38.47;;;17.85;;
71166;SDS011;58864;45.928;20.078;2024-03-06T09:07:44;39.60;;;18.40;;
71166;SDS011;58864;45.928;20.078;2024-03-06T09:10:12;38.42;;;16.40;;
71166;SDS011;58864;45.928;20.078;2024-03-06T09:12:38;37.53;;;18.17;;
71166;SDS011;58864;45.928;20.078;2024-03-06T09:15:05;38.17;;;17.45;;
71166;SDS011;58864;45.928;20.078;2024-03-06T09:17:32;36.13;;;17.67;;
71166;SDS011;58864;45.928;20.078;2024-03-06T09:19:58;34.33;;;16.47;;
71166;SDS011;58864;45.928;20.078;2024-03-06T09:22:33;36.38;;;17.60;;
71166;SDS011;58864;45.928;20.078;2024-03-06T09:25:00;38.75;;;17.73;;
71166;SDS011;58864;45.928;20.078;2024-03-06T09:27:27;36.38;;;17.67;;
71166;SDS011;58864;45.928;20.078;2024-03-06T09:29:53;37.17;;;17.00;;
71166;SDS011;58864;45.928;20.078;2024-03-06T09:32:20;36.20;;;15.50;;
71166;SDS011;58864;45.928;20.078;2024-03-06T09:34:46;35.05;;;15.88;;
71166;SDS011;58864;45.928;20.078;2024-03-06T09:37:12;33.08;;;15.63;;
71166;SDS011;58864;45.928;20.078;2024-03-06T09:39:38;35.67;;;15.90;;
71166;SDS011;58864;45.928;20.078;2024-03-06T09:42:04;31.98;;;14.75;;
71166;SDS011;58864;45.928;20.078;2024-03-06T09:44:32;34.90;;;16.63;;
71166;SDS011;58864;45.928;20.078;2024-03-06T09:46:59;34.15;;;16.40;;
71166;SDS011;58864;45.928;20.078;2024-03-06T09:49:28;31.35;;;15.68;;
71166;SDS011;58864;45.928;20.078;2024-03-06T09:51:55;28.67;;;14.73;;
71166;SDS011;58864;45.928;20.078;2024-03-06T09:54:22;30.95;;;15.73;;
71166;SDS011;58864;45.928;20.078;2024-03-06T09:56:50;32.77;;;14.77;;
71166;SDS011;58864;45.928;20.078;2024-03-06T09:59:16;27.00;;;14.10;;
71166;SDS011;58864;45.928;20.078;2024-03-06T10:01:46;29.90;;;15.35;;
71166;SDS011;58864;45.928;20.078;2024-03-06T10:04:18;32.95;;;16.10;;
71166;SDS011;58864;45.928;20.078;2024-03-06T10:06:45;27.83;;;14.30;;
71166;SDS011;58864;45.928;20.078;2024-03-06T10:09:11;31.23;;;14.73;;
71166;SDS011;58864;45.928;20.078;2024-03-06T10:11:38;27.90;;;14.13;;
71166;SDS011;58864;45.928;20.078;2024-03-06T10:14:06;29.50;;;15.07;;
71166;SDS011;58864;45.928;20.078;2024-03-06T10:16:32;31.98;;;15.43;;
71166;SDS011;58864;45.928;20.078;2024-03-06T10:19:10;31.70;;;15.27;;
71166;SDS011;58864;45.928;20.078;2024-03-06T10:21:41;30.50;;;15.13;;
71166;SDS011;58864;45.928;20.078;2024-03-06T10:24:08;26.63;;;13.73;;
71166;SDS011;58864;45.928;20.078;2024-03-06T10:26:35;26.33;;;13.95;;
71166;SDS011;58864;45.928;20.078;2024-03-06T10:29:01;28.80;;;14.27;;
71166;SDS011;58864;45.928;20.078;2024-03-06T10:31:27;28.42;;;14.48;;
71166;SDS011;58864;45.928;20.078;2024-03-06T10:33:53;28.57;;;14.50;;
71166;SDS011;58864;45.928;20.078;2024-03-06T10:36:20;28.50;;;14.10;;
71166;SDS011;58864;45.928;20.078;2024-03-06T10:38:47;28.17;;;14.60;;
71166;SDS011;58864;45.928;20.078;2024-03-06T10:41:14;30.23;;;14.32;;
71166;SDS011;58864;45.928;20.078;2024-03-06T10:43:40;28.88;;;14.07;;
71166;SDS011;58864;45.928;20.078;2024-03-06T10:46:10;28.83;;;14.37;;
71166;SDS011;58864;45.928;20.078;2024-03-06T10:48:36;26.77;;;14.82;;
71166;SDS011;58864;45.928;20.078;2024-03-06T10:51:03;28.10;;;13.77;;
71166;SDS011;58864;45.928;20.078;2024-03-06T10:53:31;29.17;;;14.27;;
71166;SDS011;58864;45.928;20.078;2024-03-06T10:55:57;28.25;;;14.93;;
71166;SDS011;58864;45.928;20.078;2024-03-06T10:58:23;33.30;;;15.03;;
71166;SDS011;58864;45.928;20.078;2024-03-06T11:00:50;29.35;;;15.02;;
71166;SDS011;58864;45.928;20.078;2024-03-06T11:03:16;30.13;;;15.57;;
71166;SDS011;58864;45.928;20.078;2024-03-06T11:05:43;29.67;;;15.30;;
71166;SDS011;58864;45.928;20.078;2024-03-06T11:08:11;31.30;;;15.15;;
71166;SDS011;58864;45.928;20.078;2024-03-06T11:10:40;30.33;;;14.53;;
71166;SDS011;58864;45.928;20.078;2024-03-06T11:13:08;28.55;;;15.23;;
71166;SDS011;58864;45.928;20.078;2024-03-06T11:15:35;30.42;;;15.40;;
71166;SDS011;58864;45.928;20.078;2024-03-06T11:24:15;30.27;;;14.27;;
71166;SDS011;58864;45.928;20.078;2024-03-06T11:26:49;26.98;;;14.23;;
71166;SDS011;58864;45.928;20.078;2024-03-06T11:29:21;25.27;;;13.98;;
71166;SDS011;58864;45.928;20.078;2024-03-06T11:32:05;26.27;;;13.73;;
71166;SDS011;58864;45.928;20.078;2024-03-06T11:34:36;24.67;;;13.75;;
71166;SDS011;58864;45.928;20.078;2024-03-06T11:37:03;30.30;;;13.83;;
71166;SDS011;58864;45.928;20.078;2024-03-06T11:39:33;24.88;;;12.82;;
71166;SDS011;58864;45.928;20.078;2024-03-06T11:42:02;24.90;;;13.30;;
71166;SDS011;58864;45.928;20.078;2024-03-06T11:44:28;23.02;;;12.63;;
71166;SDS011;58864;45.928;20.078;2024-03-06T11:46:57;23.63;;;13.07;;
71166;SDS011;58864;45.928;20.078;2024-03-06T11:49:24;25.10;;;13.40;;
71166;SDS011;58864;45.928;20.078;2024-03-06T11:51:52;24.02;;;12.95;;
71166;SDS011;58864;45.928;20.078;2024-03-06T11:54:19;23.30;;;12.52;;
71166;SDS011;58864;45.928;20.078;2024-03-06T11:56:47;22.75;;;12.90;;
71166;SDS011;58864;45.928;20.078;2024-03-06T11:59:16;23.75;;;13.55;;
71166;SDS011;58864;45.928;20.078;2024-03-06T12:01:41;27.13;;;13.30;;
71166;SDS011;58864;45.928;20.078;2024-03-06T12:04:07;24.35;;;13.35;;
71166;SDS011;58864;45.928;20.078;2024-03-06T12:06:33;27.63;;;13.95;;
71166;SDS011;58864;45.928;20.078;2024-03-06T12:08:59;23.38;;;12.93;;
71166;SDS011;58864;45.928;20.078;2024-03-06T12:11:26;26.25;;;13.60;;
71166;SDS011;58864;45.928;20.078;2024-03-06T12:13:52;23.93;;;12.53;;
71166;SDS011;58864;45.928;20.078;2024-03-06T12:16:19;23.30;;;12.15;;
71166;SDS011;58864;45.928;20.078;2024-03-06T12:18:45;25.15;;;11.38;;
71166;SDS011;58864;45.928;20.078;2024-03-06T12:21:11;22.88;;;11.15;;
71166;SDS011;58864;45.928;20.078;2024-03-06T12:23:38;25.45;;;11.55;;
71166;SDS011;58864;45.928;20.078;2024-03-06T12:26:04;24.00;;;12.70;;
71166;SDS011;58864;45.928;20.078;2024-03-06T12:28:30;28.52;;;12.35;;
71166;SDS011;58864;45.928;20.078;2024-03-06T12:30:56;22.08;;;11.55;;
71166;SDS011;58864;45.928;20.078;2024-03-06T12:33:26;22.80;;;12.00;;
71166;SDS011;58864;45.928;20.078;2024-03-06T12:36:00;25.48;;;12.68;;
71166;SDS011;58864;45.928;20.078;2024-03-06T12:38:28;20.13;;;11.33;;
71166;SDS011;58864;45.928;20.078;2024-03-06T12:40:54;25.33;;;11.60;;
71166;SDS011;58864;45.928;20.078;2024-03-06T12:43:20;20.35;;;11.20;;
71166;SDS011;58864;45.928;20.078;2024-03-06T12:45:46;21.17;;;11.38;;
71166;SDS011;58864;45.928;20.078;2024-03-06T12:48:12;23.70;;;12.38;;
71166;SDS011;58864;45.928;20.078;2024-03-06T12:50:40;23.63;;;12.93;;
71166;SDS011;58864;45.928;20.078;2024-03-06T12:53:10;20.10;;;10.30;;
71166;SDS011;58864;45.928;20.078;2024-03-06T12:55:36;23.65;;;11.38;;
71166;SDS011;58864;45.928;20.078;2024-03-06T12:58:02;24.45;;;11.55;;
71166;SDS011;58864;45.928;20.078;2024-03-06T13:00:28;21.45;;;11.07;;
71166;SDS011;58864;45.928;20.078;2024-03-06T13:02:54;19.80;;;10.37;;
71166;SDS011;58864;45.928;20.078;2024-03-06T13:05:20;22.80;;;11.82;;
71166;SDS011;58864;45.928;20.078;2024-03-06T13:07:47;22.13;;;11.02;;
71166;SDS011;58864;45.928;20.078;2024-03-06T13:10:13;19.80;;;10.75;;
71166;SDS011;58864;45.928;20.078;2024-03-06T13:12:39;21.73;;;11.60;;
71166;SDS011;58864;45.928;20.078;2024-03-06T13:15:05;19.47;;;11.23;;
71166;SDS011;58864;45.928;20.078;2024-03-06T13:17:32;20.77;;;11.02;;
71166;SDS011;58864;45.928;20.078;2024-03-06T13:19:59;22.95;;;11.00;;
71166;SDS011;58864;45.928;20.078;2024-03-06T13:22:24;23.70;;;11.40;;
71166;SDS011;58864;45.928;20.078;2024-03-06T13:24:52;20.80;;;11.00;;
71166;SDS011;58864;45.928;20.078;2024-03-06T13:27:18;21.30;;;10.97;;
71166;SDS011;58864;45.928;20.078;2024-03-06T13:29:44;21.83;;;11.15;;
71166;SDS011;58864;45.928;20.078;2024-03-06T13:32:09;19.75;;;10.68;;
71166;SDS011;58864;45.928;20.078;2024-03-06T13:34:35;20.02;;;10.40;;
71166;SDS011;58864;45.928;20.078;2024-03-06T13:37:02;21.27;;;11.07;;
71166;SDS011;58864;45.928;20.078;2024-03-06T13:39:28;21.17;;;11.10;;
71166;SDS011;58864;45.928;20.078;2024-03-06T13:41:55;20.73;;;11.75;;
71166;SDS011;58864;45.928;20.078;2024-03-06T13:44:22;23.52;;;10.70;;
71166;SDS011;58864;45.928;20.078;2024-03-06T13:46:47;20.60;;;10.63;;
71166;SDS011;58864;45.928;20.078;2024-03-06T13:49:33;20.35;;;9.80;;
71166;SDS011;58864;45.928;20.078;2024-03-06T13:52:00;18.23;;;9.40;;
71166;SDS011;58864;45.928;20.078;2024-03-06T13:54:26;19.73;;;10.50;;
71166;SDS011;58864;45.928;20.078;2024-03-06T13:56:52;19.85;;;9.80;;
71166;SDS011;58864;45.928;20.078;2024-03-06T13:59:26;19.65;;;10.32;;
71166;SDS011;58864;45.928;20.078;2024-03-06T14:01:53;19.15;;;10.48;;
71166;SDS011;58864;45.928;20.078;2024-03-06T14:04:19;21.53;;;9.53;;
71166;SDS011;58864;45.928;20.078;2024-03-06T14:06:45;17.90;;;9.43;;
71166;SDS011;58864;45.928;20.078;2024-03-06T14:09:11;19.73;;;9.68;;
71166;SDS011;58864;45.928;20.078;2024-03-06T14:11:37;20.85;;;10.57;;